sensor_id;sensor_type;location;lat;lon;timestamp;temperature;humidity
13721;DHT22;6932;51.438;5.470;2023-02-12T00:00:45;15.00;83.00
13721;DHT22;6932;51.438;5.470;2023-02-12T00:03:11;15.00;82.90
13721;DHT22;6932;51.438;5.470;2023-02-12T00:05:39;15.00;82.90
13721;DHT22;6932;51.438;5.470;2023-02-12T00:08:09;15.00;82.90
13721;DHT22;6932;51.438;5.470;2023-02-12T00:10:39;15.00;82.90
13721;DHT22;6932;51.438;5.470;2023-02-12T00:13:07;15.00;82.80
13721;DHT22;6932;51.438;5.470;2023-02-12T00:15:38;15.00;82.90
13721;DHT22;6932;51.438;5.470;2023-02-12T00:18:05;15.00;82.80
13721;DHT22;6932;51.438;5.470;2023-02-12T00:20:30;15.00;82.80
13721;DHT22;6932;51.438;5.470;2023-02-12T00:22:56;15.00;82.70
13721;DHT22;6932;51.438;5.470;2023-02-12T00:25:22;15.00;82.60
13721;DHT22;6932;51.438;5.470;2023-02-12T00:27:47;15.00;82.50
13721;DHT22;6932;51.438;5.470;2023-02-12T00:30:13;15.00;82.50
13721;DHT22;6932;51.438;5.470;2023-02-12T00:32:39;15.00;82.40
13721;DHT22;6932;51.438;5.470;2023-02-12T00:35:05;15.00;82.40
13721;DHT22;6932;51.438;5.470;2023-02-12T00:37:31;15.00;82.40
13721;DHT22;6932;51.438;5.470;2023-02-12T00:39:57;15.00;82.40
13721;DHT22;6932;51.438;5.470;2023-02-12T00:42:23;15.00;82.40
13721;DHT22;6932;51.438;5.470;2023-02-12T00:44:48;15.00;82.40
13721;DHT22;6932;51.438;5.470;2023-02-12T00:47:14;15.00;82.30
13721;DHT22;6932;51.438;5.470;2023-02-12T00:49:41;15.00;82.20
13721;DHT22;6932;51.438;5.470;2023-02-12T00:52:07;15.00;82.20
13721;DHT22;6932;51.438;5.470;2023-02-12T00:54:33;15.00;82.20
13721;DHT22;6932;51.438;5.470;2023-02-12T00:56:59;15.00;82.20
13721;DHT22;6932;51.438;5.470;2023-02-12T00:59:25;15.00;82.00
13721;DHT22;6932;51.438;5.470;2023-02-12T01:01:53;15.00;81.90
13721;DHT22;6932;51.438;5.470;2023-02-12T01:04:19;15.00;81.80
13721;DHT22;6932;51.438;5.470;2023-02-12T01:06:46;15.00;81.80
13721;DHT22;6932;51.438;5.470;2023-02-12T01:09:12;15.00;81.80
13721;DHT22;6932;51.438;5.470;2023-02-12T01:11:38;15.00;82.40
13721;DHT22;6932;51.438;5.470;2023-02-12T01:14:06;15.00;81.70
13721;DHT22;6932;51.438;5.470;2023-02-12T01:16:32;15.00;81.70
13721;DHT22;6932;51.438;5.470;2023-02-12T01:19:01;15.00;81.80
13721;DHT22;6932;51.438;5.470;2023-02-12T01:21:30;15.00;81.60
13721;DHT22;6932;51.438;5.470;2023-02-12T01:23:58;15.00;81.60
13721;DHT22;6932;51.438;5.470;2023-02-12T01:26:26;15.00;81.60
13721;DHT22;6932;51.438;5.470;2023-02-12T01:29:02;15.00;81.50
13721;DHT22;6932;51.438;5.470;2023-02-12T01:31:34;15.00;81.40
13721;DHT22;6932;51.438;5.470;2023-02-12T01:34:02;15.00;81.50
13721;DHT22;6932;51.438;5.470;2023-02-12T01:36:30;15.00;81.50
13721;DHT22;6932;51.438;5.470;2023-02-12T01:38:57;15.00;82.20
13721;DHT22;6932;51.438;5.470;2023-02-12T01:41:29;15.00;81.50
13721;DHT22;6932;51.438;5.470;2023-02-12T01:46:33;15.00;81.50
13721;DHT22;6932;51.438;5.470;2023-02-12T01:49:00;15.00;81.60
13721;DHT22;6932;51.438;5.470;2023-02-12T01:51:28;15.00;81.60
13721;DHT22;6932;51.438;5.470;2023-02-12T01:53:55;15.00;81.50
13721;DHT22;6932;51.438;5.470;2023-02-12T01:56:27;15.00;81.50
13721;DHT22;6932;51.438;5.470;2023-02-12T01:58:54;15.00;81.60
13721;DHT22;6932;51.438;5.470;2023-02-12T02:01:24;15.00;81.60
13721;DHT22;6932;51.438;5.470;2023-02-12T02:04:10;15.00;81.50
13721;DHT22;6932;51.438;5.470;2023-02-12T02:06:49;15.00;82.30
13721;DHT22;6932;51.438;5.470;2023-02-12T02:09:20;15.00;81.80
13721;DHT22;6932;51.438;5.470;2023-02-12T02:11:46;15.00;81.90
13721;DHT22;6932;51.438;5.470;2023-02-12T02:14:30;15.00;81.80
13721;DHT22;6932;51.438;5.470;2023-02-12T02:29:47;14.90;81.60
13721;DHT22;6932;51.438;5.470;2023-02-12T02:32:24;15.00;81.70
13721;DHT22;6932;51.438;5.470;2023-02-12T02:35:14;14.90;81.50
13721;DHT22;6932;51.438;5.470;2023-02-12T02:40:37;14.90;81.50
13721;DHT22;6932;51.438;5.470;2023-02-12T02:43:20;14.90;81.60
13721;DHT22;6932;51.438;5.470;2023-02-12T02:46:01;14.90;81.70
13721;DHT22;6932;51.438;5.470;2023-02-12T02:48:39;14.90;81.70
13721;DHT22;6932;51.438;5.470;2023-02-12T02:51:13;14.90;81.70
13721;DHT22;6932;51.438;5.470;2023-02-12T02:53:51;14.90;81.70
13721;DHT22;6932;51.438;5.470;2023-02-12T02:56:23;14.90;81.70
13721;DHT22;6932;51.438;5.470;2023-02-12T02:59:06;14.90;81.70
13721;DHT22;6932;51.438;5.470;2023-02-12T03:01:58;14.90;81.80
13721;DHT22;6932;51.438;5.470;2023-02-12T03:04:33;14.90;81.80
13721;DHT22;6932;51.438;5.470;2023-02-12T03:09:58;14.90;81.80
13721;DHT22;6932;51.438;5.470;2023-02-12T03:12:37;14.90;81.80
13721;DHT22;6932;51.438;5.470;2023-02-12T03:15:12;14.90;81.80
13721;DHT22;6932;51.438;5.470;2023-02-12T03:18:07;15.00;81.80
13721;DHT22;6932;51.438;5.470;2023-02-12T03:20:44;14.90;81.70
13721;DHT22;6932;51.438;5.470;2023-02-12T03:23:26;14.90;81.70
13721;DHT22;6932;51.438;5.470;2023-02-12T03:26:21;14.90;81.60
13721;DHT22;6932;51.438;5.470;2023-02-12T03:28:50;14.90;81.50
13721;DHT22;6932;51.438;5.470;2023-02-12T03:31:36;14.90;81.60
13721;DHT22;6932;51.438;5.470;2023-02-12T03:34:17;14.90;81.50
13721;DHT22;6932;51.438;5.470;2023-02-12T03:36:55;14.90;81.50
13721;DHT22;6932;51.438;5.470;2023-02-12T03:42:31;14.90;81.60
13721;DHT22;6932;51.438;5.470;2023-02-12T03:45:00;14.90;81.50
13721;DHT22;6932;51.438;5.470;2023-02-12T03:47:33;14.90;81.60
13721;DHT22;6932;51.438;5.470;2023-02-12T03:50:27;14.90;81.60
13721;DHT22;6932;51.438;5.470;2023-02-12T03:53:02;14.90;81.70
13721;DHT22;6932;51.438;5.470;2023-02-12T03:55:31;14.90;81.60
13721;DHT22;6932;51.438;5.470;2023-02-12T03:58:00;14.90;81.70
13721;DHT22;6932;51.438;5.470;2023-02-12T04:00:27;14.90;81.70
13721;DHT22;6932;51.438;5.470;2023-02-12T04:02:54;14.90;81.70
13721;DHT22;6932;51.438;5.470;2023-02-12T04:05:22;14.90;81.70
13721;DHT22;6932;51.438;5.470;2023-02-12T04:07:52;14.90;81.80
13721;DHT22;6932;51.438;5.470;2023-02-12T04:10:27;14.90;81.80
13721;DHT22;6932;51.438;5.470;2023-02-12T04:16:39;14.90;81.00
13721;DHT22;6932;51.438;5.470;2023-02-12T04:19:12;14.90;80.80
13721;DHT22;6932;51.438;5.470;2023-02-12T04:27:53;15.00;81.30
13721;DHT22;6932;51.438;5.470;2023-02-12T04:31:10;14.90;81.20
13721;DHT22;6932;51.438;5.470;2023-02-12T04:33:21;15.00;81.30
13721;DHT22;6932;51.438;5.470;2023-02-12T04:35:57;15.00;81.30
13721;DHT22;6932;51.438;5.470;2023-02-12T04:38:57;15.00;81.20
13721;DHT22;6932;51.438;5.470;2023-02-12T04:41:26;15.00;81.20
13721;DHT22;6932;51.438;5.470;2023-02-12T04:43:52;15.00;81.20
13721;DHT22;6932;51.438;5.470;2023-02-12T04:46:18;15.00;81.10
13721;DHT22;6932;51.438;5.470;2023-02-12T04:48:55;15.00;81.10
13721;DHT22;6932;51.438;5.470;2023-02-12T04:51:23;14.90;81.00
13721;DHT22;6932;51.438;5.470;2023-02-12T04:53:50;15.00;81.00
13721;DHT22;6932;51.438;5.470;2023-02-12T04:56:16;15.00;80.90
13721;DHT22;6932;51.438;5.470;2023-02-12T04:58:42;15.00;80.90
13721;DHT22;6932;51.438;5.470;2023-02-12T05:01:08;15.00;80.90
13721;DHT22;6932;51.438;5.470;2023-02-12T05:03:35;15.00;80.80
13721;DHT22;6932;51.438;5.470;2023-02-12T05:06:03;15.00;80.80
13721;DHT22;6932;51.438;5.470;2023-02-12T05:08:29;15.00;80.70
13721;DHT22;6932;51.438;5.470;2023-02-12T05:10:55;15.00;80.60
13721;DHT22;6932;51.438;5.470;2023-02-12T05:13:21;15.00;80.60
13721;DHT22;6932;51.438;5.470;2023-02-12T05:15:47;15.00;80.60
13721;DHT22;6932;51.438;5.470;2023-02-12T05:18:12;15.00;80.50
13721;DHT22;6932;51.438;5.470;2023-02-12T05:20:38;15.00;80.60
13721;DHT22;6932;51.438;5.470;2023-02-12T05:23:04;15.00;80.50
13721;DHT22;6932;51.438;5.470;2023-02-12T05:25:30;15.00;80.40
13721;DHT22;6932;51.438;5.470;2023-02-12T05:27:56;15.00;80.40
13721;DHT22;6932;51.438;5.470;2023-02-12T05:30:22;15.00;80.30
13721;DHT22;6932;51.438;5.470;2023-02-12T05:32:48;15.00;80.20
13721;DHT22;6932;51.438;5.470;2023-02-12T05:35:14;15.00;80.30
13721;DHT22;6932;51.438;5.470;2023-02-12T05:37:40;15.00;80.30
13721;DHT22;6932;51.438;5.470;2023-02-12T05:40:06;15.00;80.20
13721;DHT22;6932;51.438;5.470;2023-02-12T05:42:33;15.00;80.20
13721;DHT22;6932;51.438;5.470;2023-02-12T05:44:59;15.00;80.10
13721;DHT22;6932;51.438;5.470;2023-02-12T05:47:25;15.00;80.10
13721;DHT22;6932;51.438;5.470;2023-02-12T05:49:51;15.00;80.10
13721;DHT22;6932;51.438;5.470;2023-02-12T05:52:17;15.00;80.00
13721;DHT22;6932;51.438;5.470;2023-02-12T05:54:42;15.00;80.00
13721;DHT22;6932;51.438;5.470;2023-02-12T05:57:08;15.00;80.00
13721;DHT22;6932;51.438;5.470;2023-02-12T05:59:34;15.00;80.00
13721;DHT22;6932;51.438;5.470;2023-02-12T06:02:00;15.00;80.50
13721;DHT22;6932;51.438;5.470;2023-02-12T06:04:27;15.00;79.80
13721;DHT22;6932;51.438;5.470;2023-02-12T06:06:54;15.00;79.80
13721;DHT22;6932;51.438;5.470;2023-02-12T06:09:22;15.00;79.80
13721;DHT22;6932;51.438;5.470;2023-02-12T06:11:48;15.00;79.80
13721;DHT22;6932;51.438;5.470;2023-02-12T06:14:17;15.00;79.70
13721;DHT22;6932;51.438;5.470;2023-02-12T06:16:45;15.00;79.70
13721;DHT22;6932;51.438;5.470;2023-02-12T06:19:15;15.00;79.70
13721;DHT22;6932;51.438;5.470;2023-02-12T06:21:41;15.00;79.70
13721;DHT22;6932;51.438;5.470;2023-02-12T06:24:07;15.00;79.70
13721;DHT22;6932;51.438;5.470;2023-02-12T06:26:32;15.00;79.70
13721;DHT22;6932;51.438;5.470;2023-02-12T06:28:59;15.00;79.70
13721;DHT22;6932;51.438;5.470;2023-02-12T06:31:31;15.00;79.70
13721;DHT22;6932;51.438;5.470;2023-02-12T06:34:05;15.00;79.60
13721;DHT22;6932;51.438;5.470;2023-02-12T06:36:32;15.00;79.60
13721;DHT22;6932;51.438;5.470;2023-02-12T06:39:01;15.00;79.60
13721;DHT22;6932;51.438;5.470;2023-02-12T06:41:27;15.00;79.60
13721;DHT22;6932;51.438;5.470;2023-02-12T06:43:54;15.00;79.60
13721;DHT22;6932;51.438;5.470;2023-02-12T06:46:20;15.00;79.60
13721;DHT22;6932;51.438;5.470;2023-02-12T06:48:46;15.00;79.60
13721;DHT22;6932;51.438;5.470;2023-02-12T06:51:14;15.00;79.70
13721;DHT22;6932;51.438;5.470;2023-02-12T06:53:42;15.00;79.90
13721;DHT22;6932;51.438;5.470;2023-02-12T06:56:10;15.00;80.10
13721;DHT22;6932;51.438;5.470;2023-02-12T06:58:39;15.00;80.10
13721;DHT22;6932;51.438;5.470;2023-02-12T07:01:18;14.90;80.10
13721;DHT22;6932;51.438;5.470;2023-02-12T07:04:00;14.90;80.20
13721;DHT22;6932;51.438;5.470;2023-02-12T07:06:28;14.90;80.30
13721;DHT22;6932;51.438;5.470;2023-02-12T07:08:55;14.90;80.30
13721;DHT22;6932;51.438;5.470;2023-02-12T07:11:28;14.90;81.00
13721;DHT22;6932;51.438;5.470;2023-02-12T07:13:55;14.90;80.40
13721;DHT22;6932;51.438;5.470;2023-02-12T07:16:21;14.90;80.50
13721;DHT22;6932;51.438;5.470;2023-02-12T07:18:47;14.80;80.60
13721;DHT22;6932;51.438;5.470;2023-02-12T07:21:14;14.80;80.60
13721;DHT22;6932;51.438;5.470;2023-02-12T07:23:44;14.80;80.60
13721;DHT22;6932;51.438;5.470;2023-02-12T07:26:12;14.80;80.80
13721;DHT22;6932;51.438;5.470;2023-02-12T07:28:39;14.80;80.90
13721;DHT22;6932;51.438;5.470;2023-02-12T07:31:17;14.70;81.00
13721;DHT22;6932;51.438;5.470;2023-02-12T07:33:44;14.70;81.10
13721;DHT22;6932;51.438;5.470;2023-02-12T07:36:16;14.70;81.10
13721;DHT22;6932;51.438;5.470;2023-02-12T07:38:45;14.70;81.00
13721;DHT22;6932;51.438;5.470;2023-02-12T07:41:25;14.70;80.90
13721;DHT22;6932;51.438;5.470;2023-02-12T07:43:58;14.70;81.00
13721;DHT22;6932;51.438;5.470;2023-02-12T07:46:28;14.60;81.00
13721;DHT22;6932;51.438;5.470;2023-02-12T07:48:57;14.60;81.20
13721;DHT22;6932;51.438;5.470;2023-02-12T07:51:25;14.60;81.30
13721;DHT22;6932;51.438;5.470;2023-02-12T07:53:52;14.60;81.40
13721;DHT22;6932;51.438;5.470;2023-02-12T07:56:30;14.60;81.50
13721;DHT22;6932;51.438;5.470;2023-02-12T07:59:04;14.60;81.50
13721;DHT22;6932;51.438;5.470;2023-02-12T08:01:37;14.60;81.50
13721;DHT22;6932;51.438;5.470;2023-02-12T08:04:13;14.60;81.60
13721;DHT22;6932;51.438;5.470;2023-02-12T08:06:42;14.60;81.60
13721;DHT22;6932;51.438;5.470;2023-02-12T08:09:12;14.70;81.70
13721;DHT22;6932;51.438;5.470;2023-02-12T08:11:41;14.70;81.80
13721;DHT22;6932;51.438;5.470;2023-02-12T08:14:10;14.70;81.80
13721;DHT22;6932;51.438;5.470;2023-02-12T08:16:38;14.70;81.80
13721;DHT22;6932;51.438;5.470;2023-02-12T08:19:05;14.70;81.90
13721;DHT22;6932;51.438;5.470;2023-02-12T08:21:32;14.70;81.80
13721;DHT22;6932;51.438;5.470;2023-02-12T08:23:58;14.70;81.90
13721;DHT22;6932;51.438;5.470;2023-02-12T08:26:29;14.70;82.00
13721;DHT22;6932;51.438;5.470;2023-02-12T08:29:08;14.70;82.10
13721;DHT22;6932;51.438;5.470;2023-02-12T08:31:38;14.70;82.00
13721;DHT22;6932;51.438;5.470;2023-02-12T08:34:09;14.70;82.00
13721;DHT22;6932;51.438;5.470;2023-02-12T08:36:41;14.70;82.00
13721;DHT22;6932;51.438;5.470;2023-02-12T08:39:08;14.70;82.00
13721;DHT22;6932;51.438;5.470;2023-02-12T08:41:38;14.70;81.70
13721;DHT22;6932;51.438;5.470;2023-02-12T08:44:04;14.70;81.70
13721;DHT22;6932;51.438;5.470;2023-02-12T08:46:33;14.70;81.80
13721;DHT22;6932;51.438;5.470;2023-02-12T08:49:05;14.70;82.00
13721;DHT22;6932;51.438;5.470;2023-02-12T08:51:39;14.70;82.10
13721;DHT22;6932;51.438;5.470;2023-02-12T08:54:12;14.70;82.20
13721;DHT22;6932;51.438;5.470;2023-02-12T08:56:40;14.70;82.20
13721;DHT22;6932;51.438;5.470;2023-02-12T08:59:07;14.70;82.20
13721;DHT22;6932;51.438;5.470;2023-02-12T09:01:35;14.70;82.10
13721;DHT22;6932;51.438;5.470;2023-02-12T09:04:03;14.80;82.10
13721;DHT22;6932;51.438;5.470;2023-02-12T09:06:32;14.80;81.90
13721;DHT22;6932;51.438;5.470;2023-02-12T09:08:59;14.80;81.80
13721;DHT22;6932;51.438;5.470;2023-02-12T09:11:27;14.90;81.70
13721;DHT22;6932;51.438;5.470;2023-02-12T09:13:58;14.90;81.40
13721;DHT22;6932;51.438;5.470;2023-02-12T09:16:31;14.90;81.30
13721;DHT22;6932;51.438;5.470;2023-02-12T09:18:58;14.90;81.30
13721;DHT22;6932;51.438;5.470;2023-02-12T09:21:24;14.90;81.30
13721;DHT22;6932;51.438;5.470;2023-02-12T09:23:51;15.00;81.30
13721;DHT22;6932;51.438;5.470;2023-02-12T09:26:19;15.00;81.10
13721;DHT22;6932;51.438;5.470;2023-02-12T09:28:48;15.00;81.00
13721;DHT22;6932;51.438;5.470;2023-02-12T09:31:18;15.00;80.90
13721;DHT22;6932;51.438;5.470;2023-02-12T09:33:57;15.10;80.70
13721;DHT22;6932;51.438;5.470;2023-02-12T09:36:28;15.10;80.60
13721;DHT22;6932;51.438;5.470;2023-02-12T09:38:55;15.10;80.60
13721;DHT22;6932;51.438;5.470;2023-02-12T09:52:48;15.20;79.80
13721;DHT22;6932;51.438;5.470;2023-02-12T09:55:16;15.20;79.80
13721;DHT22;6932;51.438;5.470;2023-02-12T09:57:44;15.20;79.80
13721;DHT22;6932;51.438;5.470;2023-02-12T10:00:17;15.20;79.80
13721;DHT22;6932;51.438;5.470;2023-02-12T10:02:50;15.30;79.60
13721;DHT22;6932;51.438;5.470;2023-02-12T10:05:22;15.30;79.50
13721;DHT22;6932;51.438;5.470;2023-02-12T10:16:35;15.30;79.10
13721;DHT22;6932;51.438;5.470;2023-02-12T10:22:23;15.40;79.00
13721;DHT22;6932;51.438;5.470;2023-02-12T10:28:12;15.40;78.80
13721;DHT22;6932;51.438;5.470;2023-02-12T10:30:45;15.40;78.70
13721;DHT22;6932;51.438;5.470;2023-02-12T10:33:20;15.40;78.60
13721;DHT22;6932;51.438;5.470;2023-02-12T10:38:48;15.30;78.10
13721;DHT22;6932;51.438;5.470;2023-02-12T10:41:16;15.20;78.00
13721;DHT22;6932;51.438;5.470;2023-02-12T10:43:42;15.10;78.20
13721;DHT22;6932;51.438;5.470;2023-02-12T10:46:15;15.00;78.50
13721;DHT22;6932;51.438;5.470;2023-02-12T10:48:44;14.90;78.70
13721;DHT22;6932;51.438;5.470;2023-02-12T10:51:49;14.80;78.70
13721;DHT22;6932;51.438;5.470;2023-02-12T10:57:12;14.60;79.40
13721;DHT22;6932;51.438;5.470;2023-02-12T10:59:51;14.60;79.60
13721;DHT22;6932;51.438;5.470;2023-02-12T11:02:30;14.50;79.70
13721;DHT22;6932;51.438;5.470;2023-02-12T11:04:59;14.50;80.00
13721;DHT22;6932;51.438;5.470;2023-02-12T11:07:48;14.50;80.00
13721;DHT22;6932;51.438;5.470;2023-02-12T11:12:58;14.40;80.00
13721;DHT22;6932;51.438;5.470;2023-02-12T11:15:35;14.50;79.80
13721;DHT22;6932;51.438;5.470;2023-02-12T11:18:26;14.40;80.40
13721;DHT22;6932;51.438;5.470;2023-02-12T11:21:06;14.40;80.60
13721;DHT22;6932;51.438;5.470;2023-02-12T11:23:39;14.40;81.10
13721;DHT22;6932;51.438;5.470;2023-02-12T11:29:17;14.40;81.10
13721;DHT22;6932;51.438;5.470;2023-02-12T11:32:02;14.30;81.20
13721;DHT22;6932;51.438;5.470;2023-02-12T11:34:29;14.40;81.50
13721;DHT22;6932;51.438;5.470;2023-02-12T11:36:56;14.40;81.40
13721;DHT22;6932;51.438;5.470;2023-02-12T11:39:30;14.40;81.60
13721;DHT22;6932;51.438;5.470;2023-02-12T11:42:02;14.30;81.60
13721;DHT22;6932;51.438;5.470;2023-02-12T11:44:42;14.40;81.80
13721;DHT22;6932;51.438;5.470;2023-02-12T11:47:18;14.50;81.70
13721;DHT22;6932;51.438;5.470;2023-02-12T11:49:57;14.60;81.70
13721;DHT22;6932;51.438;5.470;2023-02-12T11:52:33;14.70;81.30
13721;DHT22;6932;51.438;5.470;2023-02-12T11:55:07;14.80;81.10
13721;DHT22;6932;51.438;5.470;2023-02-12T11:57:50;14.90;80.90
13721;DHT22;6932;51.438;5.470;2023-02-12T12:00:37;15.00;80.70
13721;DHT22;6932;51.438;5.470;2023-02-12T12:03:17;15.10;80.40
13721;DHT22;6932;51.438;5.470;2023-02-12T12:06:01;15.10;80.00
13721;DHT22;6932;51.438;5.470;2023-02-12T12:08:43;15.20;79.80
13721;DHT22;6932;51.438;5.470;2023-02-12T12:11:18;15.30;79.80
13721;DHT22;6932;51.438;5.470;2023-02-12T12:14:28;15.30;79.60
13721;DHT22;6932;51.438;5.470;2023-02-12T12:17:04;15.40;79.40
13721;DHT22;6932;51.438;5.470;2023-02-12T12:20:04;15.40;78.90
13721;DHT22;6932;51.438;5.470;2023-02-12T12:25:33;15.50;78.90
13721;DHT22;6932;51.438;5.470;2023-02-12T12:28:32;15.50;78.80
13721;DHT22;6932;51.438;5.470;2023-02-12T12:31:30;15.60;78.80
13721;DHT22;6932;51.438;5.470;2023-02-12T12:40:06;15.60;78.50
13721;DHT22;6932;51.438;5.470;2023-02-12T12:43:59;15.60;78.20
13721;DHT22;6932;51.438;5.470;2023-02-12T12:46:39;15.70;78.00
13721;DHT22;6932;51.438;5.470;2023-02-12T13:00:49;15.70;77.90
13721;DHT22;6932;51.438;5.470;2023-02-12T13:06:31;15.80;77.80
13721;DHT22;6932;51.438;5.470;2023-02-12T13:27:13;15.90;77.70
13721;DHT22;6932;51.438;5.470;2023-02-12T13:30:18;15.90;77.50
13721;DHT22;6932;51.438;5.470;2023-02-12T13:35:47;15.90;77.70
13721;DHT22;6932;51.438;5.470;2023-02-12T13:38:37;15.90;77.60
13721;DHT22;6932;51.438;5.470;2023-02-12T13:41:10;15.90;77.60
13721;DHT22;6932;51.438;5.470;2023-02-12T13:49:44;15.90;77.50
13721;DHT22;6932;51.438;5.470;2023-02-12T13:52:42;15.90;77.50
13721;DHT22;6932;51.438;5.470;2023-02-12T14:06:59;15.30;77.80
13721;DHT22;6932;51.438;5.470;2023-02-12T14:10:18;15.10;78.00
13721;DHT22;6932;51.438;5.470;2023-02-12T14:12:31;15.10;78.40
13721;DHT22;6932;51.438;5.470;2023-02-12T14:15:48;15.00;78.70
13721;DHT22;6932;51.438;5.470;2023-02-12T14:18:11;14.90;79.00
13721;DHT22;6932;51.438;5.470;2023-02-12T14:23:38;14.80;79.60
13721;DHT22;6932;51.438;5.470;2023-02-12T14:26:22;14.80;79.70
13721;DHT22;6932;51.438;5.470;2023-02-12T14:28:49;14.90;79.70
13721;DHT22;6932;51.438;5.470;2023-02-12T14:33:42;15.00;79.60
13721;DHT22;6932;51.438;5.470;2023-02-12T14:36:17;15.10;79.60
13721;DHT22;6932;51.438;5.470;2023-02-12T14:41:48;15.30;79.30
13721;DHT22;6932;51.438;5.470;2023-02-12T14:47:01;15.40;79.00
13721;DHT22;6932;51.438;5.470;2023-02-12T14:49:38;15.40;78.90
13721;DHT22;6932;51.438;5.470;2023-02-12T14:54:49;15.50;78.70
13721;DHT22;6932;51.438;5.470;2023-02-12T14:57:28;15.50;78.70
13721;DHT22;6932;51.438;5.470;2023-02-12T15:00:20;15.60;78.70
13721;DHT22;6932;51.438;5.470;2023-02-12T15:02:59;15.60;78.60
13721;DHT22;6932;51.438;5.470;2023-02-12T15:08:59;15.60;78.40
13721;DHT22;6932;51.438;5.470;2023-02-12T15:11:53;15.60;78.30
13721;DHT22;6932;51.438;5.470;2023-02-12T15:14:28;15.60;78.40
13721;DHT22;6932;51.438;5.470;2023-02-12T15:17:14;15.60;78.30
13721;DHT22;6932;51.438;5.470;2023-02-12T15:19:57;15.60;78.40
13721;DHT22;6932;51.438;5.470;2023-02-12T15:22:32;15.70;78.40
13721;DHT22;6932;51.438;5.470;2023-02-12T15:25:27;15.70;78.40
13721;DHT22;6932;51.438;5.470;2023-02-12T15:27:59;15.60;78.30
13721;DHT22;6932;51.438;5.470;2023-02-12T15:30:31;15.70;78.40
13721;DHT22;6932;51.438;5.470;2023-02-12T15:33:03;15.70;78.40
13721;DHT22;6932;51.438;5.470;2023-02-12T15:35:33;15.70;78.40
13721;DHT22;6932;51.438;5.470;2023-02-12T15:38:01;15.70;78.40
13721;DHT22;6932;51.438;5.470;2023-02-12T15:40:30;15.70;78.30
13721;DHT22;6932;51.438;5.470;2023-02-12T15:43:03;15.70;78.20
13721;DHT22;6932;51.438;5.470;2023-02-12T15:45:33;15.70;78.10
13721;DHT22;6932;51.438;5.470;2023-02-12T15:48:09;15.70;78.20
13721;DHT22;6932;51.438;5.470;2023-02-12T15:50:54;15.60;78.20
13721;DHT22;6932;51.438;5.470;2023-02-12T15:53:34;15.60;78.20
13721;DHT22;6932;51.438;5.470;2023-02-12T15:56:01;15.70;78.20
13721;DHT22;6932;51.438;5.470;2023-02-12T15:58:46;15.70;78.30
13721;DHT22;6932;51.438;5.470;2023-02-12T16:01:16;15.70;78.30
13721;DHT22;6932;51.438;5.470;2023-02-12T16:03:55;15.60;78.30
13721;DHT22;6932;51.438;5.470;2023-02-12T16:06:25;15.70;78.40
13721;DHT22;6932;51.438;5.470;2023-02-12T16:09:16;15.60;78.30
13721;DHT22;6932;51.438;5.470;2023-02-12T16:11:50;15.60;78.40
13721;DHT22;6932;51.438;5.470;2023-02-12T16:14:22;15.70;78.40
13721;DHT22;6932;51.438;5.470;2023-02-12T16:17:30;15.70;78.40
13721;DHT22;6932;51.438;5.470;2023-02-12T16:22:47;15.70;78.50
13721;DHT22;6932;51.438;5.470;2023-02-12T16:25:25;15.60;78.50
13721;DHT22;6932;51.438;5.470;2023-02-12T16:28:06;15.70;78.50
13721;DHT22;6932;51.438;5.470;2023-02-12T16:30:42;15.60;78.50
13721;DHT22;6932;51.438;5.470;2023-02-12T16:33:32;15.60;78.50
13721;DHT22;6932;51.438;5.470;2023-02-12T16:36:03;15.60;78.60
13721;DHT22;6932;51.438;5.470;2023-02-12T16:41:21;15.60;78.70
13721;DHT22;6932;51.438;5.470;2023-02-12T16:46:27;15.60;78.70
13721;DHT22;6932;51.438;5.470;2023-02-12T16:48:56;15.60;78.70
13721;DHT22;6932;51.438;5.470;2023-02-12T16:51:33;15.60;79.40
13721;DHT22;6932;51.438;5.470;2023-02-12T16:54:01;15.60;78.70
13721;DHT22;6932;51.438;5.470;2023-02-12T16:56:35;15.60;78.80
13721;DHT22;6932;51.438;5.470;2023-02-12T16:59:04;15.60;78.90
13721;DHT22;6932;51.438;5.470;2023-02-12T17:01:34;15.60;78.90
13721;DHT22;6932;51.438;5.470;2023-02-12T17:04:05;15.60;78.90
13721;DHT22;6932;51.438;5.470;2023-02-12T17:06:33;15.60;79.00
13721;DHT22;6932;51.438;5.470;2023-02-12T17:08:59;15.60;79.00
13721;DHT22;6932;51.438;5.470;2023-02-12T17:11:25;15.60;79.00
13721;DHT22;6932;51.438;5.470;2023-02-12T17:13:53;15.60;79.00
13721;DHT22;6932;51.438;5.470;2023-02-12T17:16:20;15.60;79.10
13721;DHT22;6932;51.438;5.470;2023-02-12T17:18:46;15.60;79.10
13721;DHT22;6932;51.438;5.470;2023-02-12T17:24:03;15.50;79.20
13721;DHT22;6932;51.438;5.470;2023-02-12T17:26:51;15.60;79.20
13721;DHT22;6932;51.438;5.470;2023-02-12T17:29:19;15.60;79.20
13721;DHT22;6932;51.438;5.470;2023-02-12T17:31:46;15.60;79.30
13721;DHT22;6932;51.438;5.470;2023-02-12T17:34:14;15.60;79.30
13721;DHT22;6932;51.438;5.470;2023-02-12T17:36:41;15.50;79.30
13721;DHT22;6932;51.438;5.470;2023-02-12T17:39:10;15.60;79.40
13721;DHT22;6932;51.438;5.470;2023-02-12T17:41:37;15.50;79.40
13721;DHT22;6932;51.438;5.470;2023-02-12T17:44:03;15.50;79.40
13721;DHT22;6932;51.438;5.470;2023-02-12T17:46:29;15.50;79.50
13721;DHT22;6932;51.438;5.470;2023-02-12T17:48:56;15.50;79.40
13721;DHT22;6932;51.438;5.470;2023-02-12T17:51:22;15.50;79.30
13721;DHT22;6932;51.438;5.470;2023-02-12T17:53:48;15.40;79.50
13721;DHT22;6932;51.438;5.470;2023-02-12T17:56:20;15.30;79.70
13721;DHT22;6932;51.438;5.470;2023-02-12T17:58:48;15.10;80.00
13721;DHT22;6932;51.438;5.470;2023-02-12T18:01:17;15.00;80.30
13721;DHT22;6932;51.438;5.470;2023-02-12T18:03:43;14.90;80.70
13721;DHT22;6932;51.438;5.470;2023-02-12T18:06:10;14.80;81.00
13721;DHT22;6932;51.438;5.470;2023-02-12T18:08:39;14.70;81.40
13721;DHT22;6932;51.438;5.470;2023-02-12T18:11:07;14.60;81.70
13721;DHT22;6932;51.438;5.470;2023-02-12T18:13:35;14.50;81.90
13721;DHT22;6932;51.438;5.470;2023-02-12T18:16:05;14.50;82.30
13721;DHT22;6932;51.438;5.470;2023-02-12T18:18:32;14.40;82.40
13721;DHT22;6932;51.438;5.470;2023-02-12T18:20:58;14.30;82.60
13721;DHT22;6932;51.438;5.470;2023-02-12T18:23:24;14.30;82.70
13721;DHT22;6932;51.438;5.470;2023-02-12T18:25:50;14.40;83.00
13721;DHT22;6932;51.438;5.470;2023-02-12T18:28:16;14.40;83.00
13721;DHT22;6932;51.438;5.470;2023-02-12T18:30:41;14.50;83.00
13721;DHT22;6932;51.438;5.470;2023-02-12T18:33:08;14.60;82.90
13721;DHT22;6932;51.438;5.470;2023-02-12T18:35:35;14.70;82.90
13721;DHT22;6932;51.438;5.470;2023-02-12T18:38:01;14.70;82.70
13721;DHT22;6932;51.438;5.470;2023-02-12T18:40:27;14.80;82.50
13721;DHT22;6932;51.438;5.470;2023-02-12T18:42:53;14.90;82.40
13721;DHT22;6932;51.438;5.470;2023-02-12T18:45:19;14.90;82.20
13721;DHT22;6932;51.438;5.470;2023-02-12T18:47:46;15.00;82.10
13721;DHT22;6932;51.438;5.470;2023-02-12T18:50:12;15.10;82.10
13721;DHT22;6932;51.438;5.470;2023-02-12T18:52:38;15.10;81.80
13721;DHT22;6932;51.438;5.470;2023-02-12T18:55:05;15.10;81.70
13721;DHT22;6932;51.438;5.470;2023-02-12T18:57:32;15.10;81.60
13721;DHT22;6932;51.438;5.470;2023-02-12T18:59:58;15.20;81.70